sensor_id;sensor_type;location;lat;lon;timestamp;P1;durP1;ratioP1;P2;durP2;ratioP2
76292;SDS011;67256;51.154;4.164;2023-02-08T00:01:21;32.83;;;21.38;;
76292;SDS011;67256;51.154;4.164;2023-02-08T00:03:48;32.47;;;20.73;;
76292;SDS011;67256;51.154;4.164;2023-02-08T00:06:14;35.30;;;21.52;;
76292;SDS011;67256;51.154;4.164;2023-02-08T00:08:40;28.20;;;18.90;;
76292;SDS011;67256;51.154;4.164;2023-02-08T00:11:06;37.55;;;19.75;;
76292;SDS011;67256;51.154;4.164;2023-02-08T00:13:35;32.25;;;20.50;;
76292;SDS011;67256;51.154;4.164;2023-02-08T00:16:02;40.05;;;19.88;;
76292;SDS011;67256;51.154;4.164;2023-02-08T00:18:28;34.95;;;20.98;;
76292;SDS011;67256;51.154;4.164;2023-02-08T00:20:54;33.17;;;20.90;;
76292;SDS011;67256;51.154;4.164;2023-02-08T00:23:21;30.00;;;19.40;;
76292;SDS011;67256;51.154;4.164;2023-02-08T00:25:47;35.38;;;19.83;;
76292;SDS011;67256;51.154;4.164;2023-02-08T00:28:14;33.55;;;21.27;;
76292;SDS011;67256;51.154;4.164;2023-02-08T00:30:41;37.72;;;20.38;;
76292;SDS011;67256;51.154;4.164;2023-02-08T00:33:07;31.15;;;19.10;;
76292;SDS011;67256;51.154;4.164;2023-02-08T00:35:33;30.58;;;20.60;;
76292;SDS011;67256;51.154;4.164;2023-02-08T00:37:59;34.55;;;19.55;;
76292;SDS011;67256;51.154;4.164;2023-02-08T00:40:25;34.45;;;20.10;;
76292;SDS011;67256;51.154;4.164;2023-02-08T00:42:51;30.25;;;19.17;;
76292;SDS011;67256;51.154;4.164;2023-02-08T00:45:17;31.25;;;19.13;;
76292;SDS011;67256;51.154;4.164;2023-02-08T00:47:43;32.50;;;19.63;;
76292;SDS011;67256;51.154;4.164;2023-02-08T00:50:09;35.70;;;21.17;;
76292;SDS011;67256;51.154;4.164;2023-02-08T00:52:36;31.55;;;21.35;;
76292;SDS011;67256;51.154;4.164;2023-02-08T00:55:02;36.38;;;21.33;;
76292;SDS011;67256;51.154;4.164;2023-02-08T00:57:30;29.85;;;20.02;;
76292;SDS011;67256;51.154;4.164;2023-02-08T00:59:56;38.88;;;20.40;;
76292;SDS011;67256;51.154;4.164;2023-02-08T01:02:22;31.48;;;19.45;;
76292;SDS011;67256;51.154;4.164;2023-02-08T01:04:48;33.13;;;19.70;;
76292;SDS011;67256;51.154;4.164;2023-02-08T01:07:14;30.38;;;19.55;;
76292;SDS011;67256;51.154;4.164;2023-02-08T01:09:40;34.22;;;20.75;;
76292;SDS011;67256;51.154;4.164;2023-02-08T01:12:06;32.40;;;21.13;;
76292;SDS011;67256;51.154;4.164;2023-02-08T01:14:32;32.80;;;20.40;;
76292;SDS011;67256;51.154;4.164;2023-02-08T01:16:57;36.67;;;20.70;;
76292;SDS011;67256;51.154;4.164;2023-02-08T01:19:23;34.97;;;20.20;;
76292;SDS011;67256;51.154;4.164;2023-02-08T01:21:49;33.15;;;20.90;;
76292;SDS011;67256;51.154;4.164;2023-02-08T01:24:15;32.72;;;20.75;;
76292;SDS011;67256;51.154;4.164;2023-02-08T01:26:41;32.65;;;21.00;;
76292;SDS011;67256;51.154;4.164;2023-02-08T01:29:07;29.75;;;19.25;;
76292;SDS011;67256;51.154;4.164;2023-02-08T01:31:35;28.48;;;18.70;;
76292;SDS011;67256;51.154;4.164;2023-02-08T01:34:03;29.80;;;18.85;;
76292;SDS011;67256;51.154;4.164;2023-02-08T01:36:30;32.35;;;20.40;;
76292;SDS011;67256;51.154;4.164;2023-02-08T01:38:57;34.40;;;21.10;;
76292;SDS011;67256;51.154;4.164;2023-02-08T01:41:24;29.00;;;18.05;;
76292;SDS011;67256;51.154;4.164;2023-02-08T01:46:45;33.35;;;20.83;;
76292;SDS011;67256;51.154;4.164;2023-02-08T01:51:47;30.60;;;19.80;;
76292;SDS011;67256;51.154;4.164;2023-02-08T01:54:17;27.85;;;19.45;;
76292;SDS011;67256;51.154;4.164;2023-02-08T01:56:45;27.25;;;17.20;;
76292;SDS011;67256;51.154;4.164;2023-02-08T01:59:13;29.45;;;18.88;;
76292;SDS011;67256;51.154;4.164;2023-02-08T02:01:47;28.92;;;18.25;;
76292;SDS011;67256;51.154;4.164;2023-02-08T02:04:14;29.13;;;19.00;;
76292;SDS011;67256;51.154;4.164;2023-02-08T02:06:41;32.13;;;19.52;;
76292;SDS011;67256;51.154;4.164;2023-02-08T02:09:14;27.60;;;18.48;;
76292;SDS011;67256;51.154;4.164;2023-02-08T02:11:41;27.30;;;19.15;;
76292;SDS011;67256;51.154;4.164;2023-02-08T02:14:08;24.17;;;16.80;;
76292;SDS011;67256;51.154;4.164;2023-02-08T02:16:35;34.88;;;19.50;;
76292;SDS011;67256;51.154;4.164;2023-02-08T02:19:01;29.60;;;18.65;;
76292;SDS011;67256;51.154;4.164;2023-02-08T02:27:21;30.70;;;17.70;;
76292;SDS011;67256;51.154;4.164;2023-02-08T02:37:50;29.10;;;18.13;;
76292;SDS011;67256;51.154;4.164;2023-02-08T02:46:12;26.00;;;17.85;;
76292;SDS011;67256;51.154;4.164;2023-02-08T02:49:02;27.23;;;17.50;;
76292;SDS011;67256;51.154;4.164;2023-02-08T02:54:19;24.92;;;17.10;;
76292;SDS011;67256;51.154;4.164;2023-02-08T02:56:58;30.65;;;17.58;;
76292;SDS011;67256;51.154;4.164;2023-02-08T02:59:31;25.30;;;16.58;;
76292;SDS011;67256;51.154;4.164;2023-02-08T03:01:58;27.50;;;17.10;;
76292;SDS011;67256;51.154;4.164;2023-02-08T03:07:45;28.00;;;16.98;;
76292;SDS011;67256;51.154;4.164;2023-02-08T03:20:45;32.35;;;18.23;;
76292;SDS011;67256;51.154;4.164;2023-02-08T03:23:30;32.70;;;19.05;;
76292;SDS011;67256;51.154;4.164;2023-02-08T03:31:32;30.92;;;17.83;;
76292;SDS011;67256;51.154;4.164;2023-02-08T03:34:05;29.92;;;18.13;;
76292;SDS011;67256;51.154;4.164;2023-02-08T03:39:32;33.50;;;18.85;;
76292;SDS011;67256;51.154;4.164;2023-02-08T03:42:03;33.38;;;19.02;;
76292;SDS011;67256;51.154;4.164;2023-02-08T03:44:37;36.80;;;19.63;;
76292;SDS011;67256;51.154;4.164;2023-02-08T03:47:14;36.28;;;19.95;;
76292;SDS011;67256;51.154;4.164;2023-02-08T03:49:54;32.05;;;20.25;;
76292;SDS011;67256;51.154;4.164;2023-02-08T03:54:54;36.70;;;19.88;;
76292;SDS011;67256;51.154;4.164;2023-02-08T03:57:28;37.40;;;22.15;;
76292;SDS011;67256;51.154;4.164;2023-02-08T04:00:21;34.25;;;20.58;;
76292;SDS011;67256;51.154;4.164;2023-02-08T04:02:51;36.65;;;20.48;;
76292;SDS011;67256;51.154;4.164;2023-02-08T04:05:21;36.17;;;20.17;;
76292;SDS011;67256;51.154;4.164;2023-02-08T04:07:48;35.28;;;20.05;;
76292;SDS011;67256;51.154;4.164;2023-02-08T04:10:14;29.13;;;18.20;;
76292;SDS011;67256;51.154;4.164;2023-02-08T04:12:41;31.48;;;18.25;;
76292;SDS011;67256;51.154;4.164;2023-02-08T04:15:07;35.08;;;18.35;;
76292;SDS011;67256;51.154;4.164;2023-02-08T04:17:33;29.70;;;19.02;;
76292;SDS011;67256;51.154;4.164;2023-02-08T04:19:59;29.48;;;17.88;;
76292;SDS011;67256;51.154;4.164;2023-02-08T04:22:25;27.65;;;17.98;;
76292;SDS011;67256;51.154;4.164;2023-02-08T04:24:51;26.50;;;17.27;;
76292;SDS011;67256;51.154;4.164;2023-02-08T04:27:17;30.33;;;19.67;;
76292;SDS011;67256;51.154;4.164;2023-02-08T04:29:42;33.90;;;19.83;;
76292;SDS011;67256;51.154;4.164;2023-02-08T04:32:08;29.77;;;17.95;;
76292;SDS011;67256;51.154;4.164;2023-02-08T04:34:39;34.17;;;19.45;;
76292;SDS011;67256;51.154;4.164;2023-02-08T04:37:05;25.75;;;17.00;;
76292;SDS011;67256;51.154;4.164;2023-02-08T04:39:31;33.55;;;18.73;;
76292;SDS011;67256;51.154;4.164;2023-02-08T04:41:57;29.75;;;18.42;;
76292;SDS011;67256;51.154;4.164;2023-02-08T04:44:23;31.33;;;17.98;;
76292;SDS011;67256;51.154;4.164;2023-02-08T04:46:49;31.45;;;18.83;;
76292;SDS011;67256;51.154;4.164;2023-02-08T04:49:15;31.50;;;18.88;;
76292;SDS011;67256;51.154;4.164;2023-02-08T04:51:41;34.40;;;19.88;;
76292;SDS011;67256;51.154;4.164;2023-02-08T04:54:07;33.42;;;18.25;;
76292;SDS011;67256;51.154;4.164;2023-02-08T04:56:33;32.50;;;19.27;;
76292;SDS011;67256;51.154;4.164;2023-02-08T04:59:00;34.20;;;18.83;;
76292;SDS011;67256;51.154;4.164;2023-02-08T05:01:26;37.17;;;20.55;;
76292;SDS011;67256;51.154;4.164;2023-02-08T05:03:52;39.20;;;21.00;;
76292;SDS011;67256;51.154;4.164;2023-02-08T05:06:17;32.58;;;18.30;;
76292;SDS011;67256;51.154;4.164;2023-02-08T05:08:43;34.50;;;19.63;;
76292;SDS011;67256;51.154;4.164;2023-02-08T05:11:09;34.38;;;20.10;;
76292;SDS011;67256;51.154;4.164;2023-02-08T05:13:35;35.35;;;20.33;;
76292;SDS011;67256;51.154;4.164;2023-02-08T05:16:00;38.55;;;20.70;;
76292;SDS011;67256;51.154;4.164;2023-02-08T05:18:26;40.58;;;21.17;;
76292;SDS011;67256;51.154;4.164;2023-02-08T05:20:53;53.45;;;29.98;;
76292;SDS011;67256;51.154;4.164;2023-02-08T05:23:23;40.33;;;22.67;;
76292;SDS011;67256;51.154;4.164;2023-02-08T05:25:49;37.80;;;22.23;;
76292;SDS011;67256;51.154;4.164;2023-02-08T05:28:15;37.90;;;22.80;;
76292;SDS011;67256;51.154;4.164;2023-02-08T05:30:41;37.20;;;21.45;;
76292;SDS011;67256;51.154;4.164;2023-02-08T05:33:07;38.95;;;22.67;;
76292;SDS011;67256;51.154;4.164;2023-02-08T05:35:33;43.45;;;22.27;;
76292;SDS011;67256;51.154;4.164;2023-02-08T05:37:59;40.85;;;22.15;;
76292;SDS011;67256;51.154;4.164;2023-02-08T05:40:25;41.85;;;25.85;;
76292;SDS011;67256;51.154;4.164;2023-02-08T05:42:51;42.75;;;23.88;;
76292;SDS011;67256;51.154;4.164;2023-02-08T05:45:17;40.78;;;22.77;;
76292;SDS011;67256;51.154;4.164;2023-02-08T05:47:42;41.25;;;24.02;;
76292;SDS011;67256;51.154;4.164;2023-02-08T05:50:11;42.03;;;22.65;;
76292;SDS011;67256;51.154;4.164;2023-02-08T05:52:37;47.33;;;23.20;;
76292;SDS011;67256;51.154;4.164;2023-02-08T05:55:03;41.00;;;22.88;;
76292;SDS011;67256;51.154;4.164;2023-02-08T05:57:30;42.03;;;22.02;;
76292;SDS011;67256;51.154;4.164;2023-02-08T05:59:55;42.50;;;23.52;;
76292;SDS011;67256;51.154;4.164;2023-02-08T06:02:21;44.63;;;23.77;;
76292;SDS011;67256;51.154;4.164;2023-02-08T06:04:47;40.05;;;23.05;;
76292;SDS011;67256;51.154;4.164;2023-02-08T06:07:13;46.70;;;24.15;;
76292;SDS011;67256;51.154;4.164;2023-02-08T06:09:39;43.42;;;22.70;;
76292;SDS011;67256;51.154;4.164;2023-02-08T06:12:05;38.53;;;20.85;;
76292;SDS011;67256;51.154;4.164;2023-02-08T06:14:31;38.90;;;22.73;;
76292;SDS011;67256;51.154;4.164;2023-02-08T06:16:59;40.10;;;21.45;;
76292;SDS011;67256;51.154;4.164;2023-02-08T06:19:25;35.50;;;20.38;;
76292;SDS011;67256;51.154;4.164;2023-02-08T06:21:51;38.95;;;21.15;;
76292;SDS011;67256;51.154;4.164;2023-02-08T06:24:16;38.00;;;21.90;;
76292;SDS011;67256;51.154;4.164;2023-02-08T06:26:42;45.15;;;25.70;;
76292;SDS011;67256;51.154;4.164;2023-02-08T06:29:09;50.78;;;27.83;;
76292;SDS011;67256;51.154;4.164;2023-02-08T06:31:34;49.90;;;29.90;;
76292;SDS011;67256;51.154;4.164;2023-02-08T06:34:01;43.03;;;25.67;;
76292;SDS011;67256;51.154;4.164;2023-02-08T06:36:27;41.63;;;23.88;;
76292;SDS011;67256;51.154;4.164;2023-02-08T06:38:53;38.58;;;22.50;;
76292;SDS011;67256;51.154;4.164;2023-02-08T06:41:18;37.50;;;22.85;;
76292;SDS011;67256;51.154;4.164;2023-02-08T06:43:44;37.88;;;23.75;;
76292;SDS011;67256;51.154;4.164;2023-02-08T06:46:10;36.55;;;22.02;;
76292;SDS011;67256;51.154;4.164;2023-02-08T06:48:36;36.83;;;21.88;;
76292;SDS011;67256;51.154;4.164;2023-02-08T06:51:02;36.92;;;22.05;;
76292;SDS011;67256;51.154;4.164;2023-02-08T06:53:29;41.53;;;20.63;;
76292;SDS011;67256;51.154;4.164;2023-02-08T06:55:55;37.13;;;22.70;;
76292;SDS011;67256;51.154;4.164;2023-02-08T06:58:20;46.83;;;22.48;;
76292;SDS011;67256;51.154;4.164;2023-02-08T07:00:46;36.63;;;22.10;;
76292;SDS011;67256;51.154;4.164;2023-02-08T07:03:13;37.80;;;22.60;;
76292;SDS011;67256;51.154;4.164;2023-02-08T07:05:41;33.50;;;21.48;;
76292;SDS011;67256;51.154;4.164;2023-02-08T07:08:07;32.58;;;20.20;;
76292;SDS011;67256;51.154;4.164;2023-02-08T07:10:33;40.25;;;22.45;;
76292;SDS011;67256;51.154;4.164;2023-02-08T07:13:00;36.70;;;21.70;;
76292;SDS011;67256;51.154;4.164;2023-02-08T07:15:26;33.35;;;21.50;;
76292;SDS011;67256;51.154;4.164;2023-02-08T07:17:54;32.58;;;20.42;;
76292;SDS011;67256;51.154;4.164;2023-02-08T07:20:20;39.22;;;20.30;;
76292;SDS011;67256;51.154;4.164;2023-02-08T07:22:46;32.53;;;19.77;;
76292;SDS011;67256;51.154;4.164;2023-02-08T07:25:11;35.20;;;20.30;;
76292;SDS011;67256;51.154;4.164;2023-02-08T07:27:37;36.65;;;21.80;;
76292;SDS011;67256;51.154;4.164;2023-02-08T07:30:03;37.38;;;23.23;;
76292;SDS011;67256;51.154;4.164;2023-02-08T07:32:32;37.03;;;22.15;;
76292;SDS011;67256;51.154;4.164;2023-02-08T07:34:58;34.97;;;22.58;;
76292;SDS011;67256;51.154;4.164;2023-02-08T07:37:24;64.00;;;31.88;;
76292;SDS011;67256;51.154;4.164;2023-02-08T07:39:50;69.70;;;34.25;;
76292;SDS011;67256;51.154;4.164;2023-02-08T07:42:16;55.53;;;29.63;;
76292;SDS011;67256;51.154;4.164;2023-02-08T07:44:42;54.70;;;31.05;;
76292;SDS011;67256;51.154;4.164;2023-02-08T07:47:08;57.15;;;29.80;;
76292;SDS011;67256;51.154;4.164;2023-02-08T07:49:35;55.85;;;30.30;;
76292;SDS011;67256;51.154;4.164;2023-02-08T07:52:01;54.88;;;29.13;;
76292;SDS011;67256;51.154;4.164;2023-02-08T07:54:27;51.38;;;28.40;;
76292;SDS011;67256;51.154;4.164;2023-02-08T07:56:53;57.15;;;29.38;;
76292;SDS011;67256;51.154;4.164;2023-02-08T07:59:19;65.43;;;33.00;;
76292;SDS011;67256;51.154;4.164;2023-02-08T08:01:45;73.63;;;34.50;;
76292;SDS011;67256;51.154;4.164;2023-02-08T08:04:11;62.40;;;34.65;;
76292;SDS011;67256;51.154;4.164;2023-02-08T08:06:36;65.78;;;34.83;;
76292;SDS011;67256;51.154;4.164;2023-02-08T08:09:02;61.20;;;35.08;;
76292;SDS011;67256;51.154;4.164;2023-02-08T08:11:29;66.55;;;34.50;;
76292;SDS011;67256;51.154;4.164;2023-02-08T08:13:56;73.43;;;36.28;;
76292;SDS011;67256;51.154;4.164;2023-02-08T08:16:22;64.18;;;34.67;;
76292;SDS011;67256;51.154;4.164;2023-02-08T08:18:48;68.28;;;35.28;;
76292;SDS011;67256;51.154;4.164;2023-02-08T08:21:14;59.35;;;32.40;;
76292;SDS011;67256;51.154;4.164;2023-02-08T08:23:40;55.80;;;26.95;;
76292;SDS011;67256;51.154;4.164;2023-02-08T08:26:16;43.53;;;24.77;;
76292;SDS011;67256;51.154;4.164;2023-02-08T08:28:44;38.58;;;25.63;;
76292;SDS011;67256;51.154;4.164;2023-02-08T08:31:11;36.00;;;21.88;;
76292;SDS011;67256;51.154;4.164;2023-02-08T08:33:39;41.22;;;22.95;;
76292;SDS011;67256;51.154;4.164;2023-02-08T08:36:06;37.33;;;23.58;;
76292;SDS011;67256;51.154;4.164;2023-02-08T08:38:32;46.58;;;24.40;;
76292;SDS011;67256;51.154;4.164;2023-02-08T08:40:58;41.40;;;23.63;;
76292;SDS011;67256;51.154;4.164;2023-02-08T08:43:23;39.47;;;24.05;;
76292;SDS011;67256;51.154;4.164;2023-02-08T08:45:49;41.78;;;23.20;;
76292;SDS011;67256;51.154;4.164;2023-02-08T08:48:15;42.35;;;21.98;;
76292;SDS011;67256;51.154;4.164;2023-02-08T08:50:41;39.45;;;22.92;;
76292;SDS011;67256;51.154;4.164;2023-02-08T08:53:07;33.70;;;20.48;;
76292;SDS011;67256;51.154;4.164;2023-02-08T08:55:33;35.95;;;21.83;;
76292;SDS011;67256;51.154;4.164;2023-02-08T08:57:59;36.63;;;21.42;;
76292;SDS011;67256;51.154;4.164;2023-02-08T09:00:25;37.90;;;21.33;;
76292;SDS011;67256;51.154;4.164;2023-02-08T09:02:51;36.10;;;22.05;;
76292;SDS011;67256;51.154;4.164;2023-02-08T09:05:17;35.42;;;21.40;;
76292;SDS011;67256;51.154;4.164;2023-02-08T09:07:43;39.58;;;21.25;;
76292;SDS011;67256;51.154;4.164;2023-02-08T09:10:08;45.55;;;23.85;;
76292;SDS011;67256;51.154;4.164;2023-02-08T09:12:34;39.38;;;19.67;;
76292;SDS011;67256;51.154;4.164;2023-02-08T09:15:00;37.45;;;19.75;;
76292;SDS011;67256;51.154;4.164;2023-02-08T09:17:26;27.75;;;16.20;;
76292;SDS011;67256;51.154;4.164;2023-02-08T09:19:52;28.05;;;16.48;;
76292;SDS011;67256;51.154;4.164;2023-02-08T09:22:17;29.88;;;17.55;;
76292;SDS011;67256;51.154;4.164;2023-02-08T09:24:44;25.25;;;16.63;;
76292;SDS011;67256;51.154;4.164;2023-02-08T09:27:10;29.45;;;16.08;;
76292;SDS011;67256;51.154;4.164;2023-02-08T09:29:35;29.00;;;15.85;;
76292;SDS011;67256;51.154;4.164;2023-02-08T09:32:02;20.65;;;13.15;;
76292;SDS011;67256;51.154;4.164;2023-02-08T09:34:28;22.08;;;13.65;;
76292;SDS011;67256;51.154;4.164;2023-02-08T09:36:53;25.00;;;12.70;;
76292;SDS011;67256;51.154;4.164;2023-02-08T09:39:20;24.33;;;13.60;;
76292;SDS011;67256;51.154;4.164;2023-02-08T09:41:56;24.05;;;14.35;;
76292;SDS011;67256;51.154;4.164;2023-02-08T09:47:35;23.92;;;13.40;;
76292;SDS011;67256;51.154;4.164;2023-02-08T09:50:12;27.83;;;13.45;;
76292;SDS011;67256;51.154;4.164;2023-02-08T09:52:46;22.50;;;13.90;;
76292;SDS011;67256;51.154;4.164;2023-02-08T09:57:49;19.85;;;12.63;;
76292;SDS011;67256;51.154;4.164;2023-02-08T10:00:23;22.02;;;11.88;;
76292;SDS011;67256;51.154;4.164;2023-02-08T10:02:58;23.30;;;12.68;;
76292;SDS011;67256;51.154;4.164;2023-02-08T10:05:26;23.52;;;10.20;;
76292;SDS011;67256;51.154;4.164;2023-02-08T10:07:54;18.00;;;11.98;;
76292;SDS011;67256;51.154;4.164;2023-02-08T10:15:45;22.17;;;13.07;;
76292;SDS011;67256;51.154;4.164;2023-02-08T10:37:22;25.38;;;13.48;;
76292;SDS011;67256;51.154;4.164;2023-02-08T10:39:56;23.33;;;13.77;;
76292;SDS011;67256;51.154;4.164;2023-02-08T10:42:25;22.15;;;12.93;;
76292;SDS011;67256;51.154;4.164;2023-02-08T10:47:53;16.38;;;10.48;;
76292;SDS011;67256;51.154;4.164;2023-02-08T10:50:30;14.10;;;10.00;;
76292;SDS011;67256;51.154;4.164;2023-02-08T10:53:03;19.65;;;10.13;;
76292;SDS011;67256;51.154;4.164;2023-02-08T10:55:30;18.25;;;10.57;;
76292;SDS011;67256;51.154;4.164;2023-02-08T10:57:59;17.23;;;10.48;;
76292;SDS011;67256;51.154;4.164;2023-02-08T11:00:30;16.23;;;9.98;;
76292;SDS011;67256;51.154;4.164;2023-02-08T11:02:59;18.05;;;10.93;;
76292;SDS011;67256;51.154;4.164;2023-02-08T11:05:35;18.88;;;12.15;;
76292;SDS011;67256;51.154;4.164;2023-02-08T11:08:06;15.05;;;10.57;;
76292;SDS011;67256;51.154;4.164;2023-02-08T11:10:39;17.42;;;9.90;;
76292;SDS011;67256;51.154;4.164;2023-02-08T11:15:39;13.85;;;9.65;;
76292;SDS011;67256;51.154;4.164;2023-02-08T11:18:17;17.92;;;9.55;;
76292;SDS011;67256;51.154;4.164;2023-02-08T11:20:47;15.75;;;10.02;;
76292;SDS011;67256;51.154;4.164;2023-02-08T11:23:23;14.75;;;9.63;;
76292;SDS011;67256;51.154;4.164;2023-02-08T11:28:40;14.77;;;8.88;;
76292;SDS011;67256;51.154;4.164;2023-02-08T11:31:17;12.05;;;7.78;;
76292;SDS011;67256;51.154;4.164;2023-02-08T11:36:26;13.40;;;8.63;;
76292;SDS011;67256;51.154;4.164;2023-02-08T11:38:53;12.82;;;7.78;;
76292;SDS011;67256;51.154;4.164;2023-02-08T11:41:19;12.82;;;7.70;;
76292;SDS011;67256;51.154;4.164;2023-02-08T11:46:25;11.15;;;7.70;;
76292;SDS011;67256;51.154;4.164;2023-02-08T11:48:53;15.45;;;7.90;;
76292;SDS011;67256;51.154;4.164;2023-02-08T11:51:30;13.20;;;8.77;;
76292;SDS011;67256;51.154;4.164;2023-02-08T11:53:59;13.52;;;8.68;;
76292;SDS011;67256;51.154;4.164;2023-02-08T11:56:28;15.00;;;9.07;;
76292;SDS011;67256;51.154;4.164;2023-02-08T12:01:25;34.67;;;11.02;;
76292;SDS011;67256;51.154;4.164;2023-02-08T12:04:03;11.85;;;6.97;;
76292;SDS011;67256;51.154;4.164;2023-02-08T12:09:50;8.80;;;4.85;;
76292;SDS011;67256;51.154;4.164;2023-02-08T12:15:04;13.93;;;6.10;;
76292;SDS011;67256;51.154;4.164;2023-02-08T12:20:32;8.98;;;5.70;;
76292;SDS011;67256;51.154;4.164;2023-02-08T12:26:07;8.57;;;5.05;;
76292;SDS011;67256;51.154;4.164;2023-02-08T12:28:45;10.90;;;5.60;;
76292;SDS011;67256;51.154;4.164;2023-02-08T12:34:31;9.90;;;5.20;;
76292;SDS011;67256;51.154;4.164;2023-02-08T12:46:04;10.95;;;5.95;;
76292;SDS011;67256;51.154;4.164;2023-02-08T12:54:17;12.57;;;5.93;;
76292;SDS011;67256;51.154;4.164;2023-02-08T12:56:53;9.25;;;5.80;;
76292;SDS011;67256;51.154;4.164;2023-02-08T12:59:22;11.23;;;5.68;;
76292;SDS011;67256;51.154;4.164;2023-02-08T13:01:53;11.25;;;6.40;;
76292;SDS011;67256;51.154;4.164;2023-02-08T13:04:26;15.02;;;6.25;;
76292;SDS011;67256;51.154;4.164;2023-02-08T13:07:03;10.50;;;5.13;;
76292;SDS011;67256;51.154;4.164;2023-02-08T13:09:46;13.60;;;6.85;;
76292;SDS011;67256;51.154;4.164;2023-02-08T13:12:20;9.82;;;6.65;;
76292;SDS011;67256;51.154;4.164;2023-02-08T13:14:58;23.38;;;8.13;;
76292;SDS011;67256;51.154;4.164;2023-02-08T13:17:30;12.43;;;6.70;;
76292;SDS011;67256;51.154;4.164;2023-02-08T13:20:02;12.60;;;6.30;;
76292;SDS011;67256;51.154;4.164;2023-02-08T13:22:41;14.05;;;8.15;;
76292;SDS011;67256;51.154;4.164;2023-02-08T13:25:20;18.55;;;8.80;;
76292;SDS011;67256;51.154;4.164;2023-02-08T13:27:53;11.35;;;6.05;;
76292;SDS011;67256;51.154;4.164;2023-02-08T13:30:20;10.00;;;4.90;;
76292;SDS011;67256;51.154;4.164;2023-02-08T13:32:47;9.18;;;4.65;;
76292;SDS011;67256;51.154;4.164;2023-02-08T13:35:27;12.07;;;5.28;;
76292;SDS011;67256;51.154;4.164;2023-02-08T13:37:57;8.40;;;4.15;;
76292;SDS011;67256;51.154;4.164;2023-02-08T13:40:29;10.88;;;4.55;;
76292;SDS011;67256;51.154;4.164;2023-02-08T13:43:07;9.30;;;4.40;;
76292;SDS011;67256;51.154;4.164;2023-02-08T13:45:49;6.47;;;4.28;;
76292;SDS011;67256;51.154;4.164;2023-02-08T13:48:17;7.20;;;4.53;;
76292;SDS011;67256;51.154;4.164;2023-02-08T13:53:15;9.05;;;4.38;;
76292;SDS011;67256;51.154;4.164;2023-02-08T13:55:43;12.82;;;4.22;;
76292;SDS011;67256;51.154;4.164;2023-02-08T14:03:39;7.72;;;3.22;;
76292;SDS011;67256;51.154;4.164;2023-02-08T14:11:45;4.65;;;3.10;;
76292;SDS011;67256;51.154;4.164;2023-02-08T14:17:10;5.03;;;3.08;;
76292;SDS011;67256;51.154;4.164;2023-02-08T14:19:41;8.75;;;3.95;;
76292;SDS011;67256;51.154;4.164;2023-02-08T14:24:43;5.35;;;3.42;;
76292;SDS011;67256;51.154;4.164;2023-02-08T14:27:37;7.93;;;3.03;;
76292;SDS011;67256;51.154;4.164;2023-02-08T14:32:41;5.28;;;3.10;;
76292;SDS011;67256;51.154;4.164;2023-02-08T14:35:34;7.22;;;3.53;;
76292;SDS011;67256;51.154;4.164;2023-02-08T14:40:51;5.70;;;3.30;;
76292;SDS011;67256;51.154;4.164;2023-02-08T14:43:31;6.18;;;3.03;;
76292;SDS011;67256;51.154;4.164;2023-02-08T14:49:02;6.00;;;2.88;;
76292;SDS011;67256;51.154;4.164;2023-02-08T14:51:35;7.22;;;2.97;;
76292;SDS011;67256;51.154;4.164;2023-02-08T14:54:13;5.18;;;2.60;;
76292;SDS011;67256;51.154;4.164;2023-02-08T14:56:59;6.03;;;2.97;;
76292;SDS011;67256;51.154;4.164;2023-02-08T14:59:31;6.35;;;2.97;;
76292;SDS011;67256;51.154;4.164;2023-02-08T15:02:00;8.35;;;3.28;;
76292;SDS011;67256;51.154;4.164;2023-02-08T15:04:28;4.83;;;2.63;;
76292;SDS011;67256;51.154;4.164;2023-02-08T15:06:58;8.55;;;3.42;;
76292;SDS011;67256;51.154;4.164;2023-02-08T15:10:04;5.85;;;3.45;;
76292;SDS011;67256;51.154;4.164;2023-02-08T15:12:36;5.22;;;3.30;;
76292;SDS011;67256;51.154;4.164;2023-02-08T15:15:04;5.82;;;2.63;;
76292;SDS011;67256;51.154;4.164;2023-02-08T15:17:35;6.10;;;3.28;;
76292;SDS011;67256;51.154;4.164;2023-02-08T15:20:25;5.80;;;3.10;;
76292;SDS011;67256;51.154;4.164;2023-02-08T15:23:04;6.05;;;3.22;;
76292;SDS011;67256;51.154;4.164;2023-02-08T15:25:42;12.82;;;4.80;;
76292;SDS011;67256;51.154;4.164;2023-02-08T15:30:43;5.63;;;3.00;;
76292;SDS011;67256;51.154;4.164;2023-02-08T15:33:14;7.90;;;3.65;;
76292;SDS011;67256;51.154;4.164;2023-02-08T15:35:42;5.72;;;3.15;;
76292;SDS011;67256;51.154;4.164;2023-02-08T15:38:19;5.57;;;3.25;;
76292;SDS011;67256;51.154;4.164;2023-02-08T15:43:28;6.68;;;3.60;;
76292;SDS011;67256;51.154;4.164;2023-02-08T15:46:01;8.25;;;4.43;;
76292;SDS011;67256;51.154;4.164;2023-02-08T15:48:29;7.20;;;4.57;;
76292;SDS011;67256;51.154;4.164;2023-02-08T15:50:56;11.52;;;5.70;;
76292;SDS011;67256;51.154;4.164;2023-02-08T15:53:23;7.53;;;4.43;;
76292;SDS011;67256;51.154;4.164;2023-02-08T15:55:55;15.25;;;6.00;;
76292;SDS011;67256;51.154;4.164;2023-02-08T15:58:35;12.90;;;4.85;;
76292;SDS011;67256;51.154;4.164;2023-02-08T16:01:05;5.90;;;3.55;;
76292;SDS011;67256;51.154;4.164;2023-02-08T16:03:33;7.22;;;4.60;;
76292;SDS011;67256;51.154;4.164;2023-02-08T16:06:01;6.35;;;4.60;;
76292;SDS011;67256;51.154;4.164;2023-02-08T16:08:30;9.23;;;5.20;;
76292;SDS011;67256;51.154;4.164;2023-02-08T16:13:38;11.63;;;6.15;;
76292;SDS011;67256;51.154;4.164;2023-02-08T16:21:45;11.60;;;4.88;;
76292;SDS011;67256;51.154;4.164;2023-02-08T16:26:43;7.70;;;4.80;;
76292;SDS011;67256;51.154;4.164;2023-02-08T16:29:19;7.97;;;3.50;;
76292;SDS011;67256;51.154;4.164;2023-02-08T16:31:46;7.65;;;3.85;;
76292;SDS011;67256;51.154;4.164;2023-02-08T16:34:19;7.82;;;4.10;;
76292;SDS011;67256;51.154;4.164;2023-02-08T16:36:48;8.30;;;4.82;;
76292;SDS011;67256;51.154;4.164;2023-02-08T16:42:18;9.55;;;5.70;;
76292;SDS011;67256;51.154;4.164;2023-02-08T16:44:57;8.55;;;5.93;;
76292;SDS011;67256;51.154;4.164;2023-02-08T16:49:58;12.02;;;4.25;;
76292;SDS011;67256;51.154;4.164;2023-02-08T16:52:24;11.52;;;5.30;;
76292;SDS011;67256;51.154;4.164;2023-02-08T16:54:51;12.77;;;5.85;;
76292;SDS011;67256;51.154;4.164;2023-02-08T16:57:17;11.18;;;6.32;;
76292;SDS011;67256;51.154;4.164;2023-02-08T16:59:43;11.35;;;4.95;;
76292;SDS011;67256;51.154;4.164;2023-02-08T17:02:11;14.15;;;5.55;;
76292;SDS011;67256;51.154;4.164;2023-02-08T17:04:37;12.18;;;5.80;;
76292;SDS011;67256;51.154;4.164;2023-02-08T17:07:04;15.20;;;5.80;;
76292;SDS011;67256;51.154;4.164;2023-02-08T17:09:29;10.43;;;5.65;;
76292;SDS011;67256;51.154;4.164;2023-02-08T17:11:55;12.75;;;5.18;;
76292;SDS011;67256;51.154;4.164;2023-02-08T17:14:21;11.65;;;5.63;;
76292;SDS011;67256;51.154;4.164;2023-02-08T17:16:47;11.18;;;4.95;;
76292;SDS011;67256;51.154;4.164;2023-02-08T17:19:14;9.15;;;4.88;;
76292;SDS011;67256;51.154;4.164;2023-02-08T17:21:42;8.65;;;5.22;;
76292;SDS011;67256;51.154;4.164;2023-02-08T17:24:07;8.68;;;5.00;;
76292;SDS011;67256;51.154;4.164;2023-02-08T17:26:36;9.80;;;5.53;;
76292;SDS011;67256;51.154;4.164;2023-02-08T17:29:04;13.38;;;6.55;;
76292;SDS011;67256;51.154;4.164;2023-02-08T17:31:31;16.10;;;6.35;;
76292;SDS011;67256;51.154;4.164;2023-02-08T17:33:58;13.02;;;5.63;;
76292;SDS011;67256;51.154;4.164;2023-02-08T17:36:29;10.38;;;5.60;;